sensor_id;sensor_type;location;lat;lon;timestamp;P1;durP1;ratioP1;P2;durP2;ratioP2
68923;SDS011;55961;52.156;20.942;2022-12-18T00:01:17;33.50;;;12.75;;
68923;SDS011;55961;52.156;20.942;2022-12-18T00:03:45;34.20;;;11.88;;
68923;SDS011;55961;52.156;20.942;2022-12-18T00:06:12;34.20;;;12.27;;
68923;SDS011;55961;52.156;20.942;2022-12-18T00:08:39;34.70;;;10.93;;
68923;SDS011;55961;52.156;20.942;2022-12-18T00:11:10;32.58;;;11.20;;
68923;SDS011;55961;52.156;20.942;2022-12-18T00:13:38;38.03;;;14.60;;
68923;SDS011;55961;52.156;20.942;2022-12-18T00:16:05;35.05;;;11.70;;
68923;SDS011;55961;52.156;20.942;2022-12-18T00:18:38;31.73;;;12.80;;
68923;SDS011;55961;52.156;20.942;2022-12-18T00:21:06;33.03;;;10.95;;
68923;SDS011;55961;52.156;20.942;2022-12-18T00:23:34;38.55;;;13.20;;
68923;SDS011;55961;52.156;20.942;2022-12-18T00:26:01;35.50;;;13.38;;
68923;SDS011;55961;52.156;20.942;2022-12-18T00:28:28;32.25;;;11.15;;
68923;SDS011;55961;52.156;20.942;2022-12-18T00:33:30;41.55;;;14.82;;
68923;SDS011;55961;52.156;20.942;2022-12-18T00:36:03;32.13;;;11.43;;
68923;SDS011;55961;52.156;20.942;2022-12-18T00:38:30;41.07;;;13.40;;
68923;SDS011;55961;52.156;20.942;2022-12-18T00:40:56;35.15;;;12.43;;
68923;SDS011;55961;52.156;20.942;2022-12-18T00:43:22;36.10;;;12.05;;
68923;SDS011;55961;52.156;20.942;2022-12-18T00:45:48;36.80;;;13.80;;
68923;SDS011;55961;52.156;20.942;2022-12-18T00:48:14;34.97;;;12.60;;
68923;SDS011;55961;52.156;20.942;2022-12-18T00:50:40;36.03;;;11.75;;
68923;SDS011;55961;52.156;20.942;2022-12-18T00:53:09;45.05;;;13.32;;
68923;SDS011;55961;52.156;20.942;2022-12-18T00:55:36;36.73;;;10.30;;
68923;SDS011;55961;52.156;20.942;2022-12-18T00:58:04;32.03;;;10.68;;
68923;SDS011;55961;52.156;20.942;2022-12-18T01:00:30;31.15;;;11.32;;
68923;SDS011;55961;52.156;20.942;2022-12-18T01:02:56;30.75;;;11.23;;
68923;SDS011;55961;52.156;20.942;2022-12-18T01:05:22;35.27;;;11.80;;
68923;SDS011;55961;52.156;20.942;2022-12-18T01:07:48;32.50;;;11.18;;
68923;SDS011;55961;52.156;20.942;2022-12-18T01:10:14;31.60;;;11.15;;
68923;SDS011;55961;52.156;20.942;2022-12-18T01:12:40;31.75;;;10.73;;
68923;SDS011;55961;52.156;20.942;2022-12-18T01:15:12;33.97;;;11.53;;
68923;SDS011;55961;52.156;20.942;2022-12-18T01:17:39;28.10;;;10.70;;
68923;SDS011;55961;52.156;20.942;2022-12-18T01:20:05;29.80;;;12.02;;
68923;SDS011;55961;52.156;20.942;2022-12-18T01:22:35;19.43;;;8.13;;
68923;SDS011;55961;52.156;20.942;2022-12-18T01:25:02;31.50;;;10.80;;
68923;SDS011;55961;52.156;20.942;2022-12-18T01:27:29;31.98;;;10.90;;
68923;SDS011;55961;52.156;20.942;2022-12-18T01:29:55;29.48;;;10.68;;
68923;SDS011;55961;52.156;20.942;2022-12-18T01:32:22;29.67;;;10.15;;
68923;SDS011;55961;52.156;20.942;2022-12-18T01:34:47;26.97;;;9.10;;
68923;SDS011;55961;52.156;20.942;2022-12-18T01:37:14;35.95;;;10.23;;
68923;SDS011;55961;52.156;20.942;2022-12-18T01:39:39;32.00;;;11.13;;
68923;SDS011;55961;52.156;20.942;2022-12-18T01:42:10;31.67;;;10.77;;
68923;SDS011;55961;52.156;20.942;2022-12-18T01:47:43;27.00;;;9.13;;
68923;SDS011;55961;52.156;20.942;2022-12-18T01:50:31;28.42;;;9.73;;
68923;SDS011;55961;52.156;20.942;2022-12-18T01:53:00;36.77;;;10.37;;
68923;SDS011;55961;52.156;20.942;2022-12-18T01:55:38;30.98;;;9.93;;
68923;SDS011;55961;52.156;20.942;2022-12-18T01:58:10;31.88;;;11.18;;
68923;SDS011;55961;52.156;20.942;2022-12-18T02:00:36;29.17;;;9.90;;
68923;SDS011;55961;52.156;20.942;2022-12-18T02:03:02;30.10;;;9.25;;
68923;SDS011;55961;52.156;20.942;2022-12-18T02:05:37;28.60;;;10.80;;
68923;SDS011;55961;52.156;20.942;2022-12-18T02:16:13;29.10;;;10.37;;
68923;SDS011;55961;52.156;20.942;2022-12-18T02:18:47;29.00;;;10.30;;
68923;SDS011;55961;52.156;20.942;2022-12-18T02:24:10;33.28;;;10.00;;
68923;SDS011;55961;52.156;20.942;2022-12-18T02:26:55;32.42;;;9.85;;
68923;SDS011;55961;52.156;20.942;2022-12-18T02:29:44;30.67;;;9.53;;
68923;SDS011;55961;52.156;20.942;2022-12-18T02:32:16;34.65;;;12.25;;
68923;SDS011;55961;52.156;20.942;2022-12-18T02:34:46;36.67;;;10.52;;
68923;SDS011;55961;52.156;20.942;2022-12-18T02:37:15;32.17;;;10.88;;
68923;SDS011;55961;52.156;20.942;2022-12-18T02:39:44;26.15;;;8.73;;
68923;SDS011;55961;52.156;20.942;2022-12-18T02:42:13;33.33;;;9.63;;
68923;SDS011;55961;52.156;20.942;2022-12-18T02:44:47;32.05;;;10.25;;
68923;SDS011;55961;52.156;20.942;2022-12-18T02:47:15;34.17;;;9.75;;
68923;SDS011;55961;52.156;20.942;2022-12-18T02:52:24;31.45;;;10.05;;
68923;SDS011;55961;52.156;20.942;2022-12-18T02:55:00;34.47;;;11.37;;
68923;SDS011;55961;52.156;20.942;2022-12-18T02:57:40;34.58;;;11.30;;
68923;SDS011;55961;52.156;20.942;2022-12-18T03:02:57;31.77;;;9.90;;
68923;SDS011;55961;52.156;20.942;2022-12-18T03:05:36;33.22;;;10.48;;
68923;SDS011;55961;52.156;20.942;2022-12-18T03:08:14;30.07;;;10.73;;
68923;SDS011;55961;52.156;20.942;2022-12-18T03:11:06;34.45;;;11.50;;
68923;SDS011;55961;52.156;20.942;2022-12-18T03:13:42;33.20;;;11.20;;
68923;SDS011;55961;52.156;20.942;2022-12-18T03:16:25;26.70;;;10.38;;
68923;SDS011;55961;52.156;20.942;2022-12-18T03:19:13;32.58;;;10.13;;
68923;SDS011;55961;52.156;20.942;2022-12-18T03:21:42;32.00;;;10.23;;
68923;SDS011;55961;52.156;20.942;2022-12-18T03:24:12;31.95;;;9.55;;
68923;SDS011;55961;52.156;20.942;2022-12-18T03:26:41;32.05;;;11.50;;
68923;SDS011;55961;52.156;20.942;2022-12-18T03:29:12;32.50;;;10.38;;
68923;SDS011;55961;52.156;20.942;2022-12-18T03:31:45;30.05;;;10.60;;
68923;SDS011;55961;52.156;20.942;2022-12-18T03:34:17;27.73;;;9.57;;
68923;SDS011;55961;52.156;20.942;2022-12-18T03:36:48;36.63;;;10.77;;
68923;SDS011;55961;52.156;20.942;2022-12-18T03:39:14;29.65;;;10.52;;
68923;SDS011;55961;52.156;20.942;2022-12-18T03:44:39;29.07;;;9.10;;
68923;SDS011;55961;52.156;20.942;2022-12-18T03:50:11;35.92;;;11.13;;
68923;SDS011;55961;52.156;20.942;2022-12-18T03:55:43;25.25;;;8.65;;
68923;SDS011;55961;52.156;20.942;2022-12-18T03:58:11;35.33;;;11.20;;
68923;SDS011;55961;52.156;20.942;2022-12-18T04:00:40;37.70;;;10.60;;
68923;SDS011;55961;52.156;20.942;2022-12-18T04:03:07;29.70;;;9.27;;
68923;SDS011;55961;52.156;20.942;2022-12-18T04:05:35;25.00;;;8.32;;
68923;SDS011;55961;52.156;20.942;2022-12-18T04:08:02;31.40;;;8.82;;
68923;SDS011;55961;52.156;20.942;2022-12-18T04:10:29;32.20;;;9.87;;
68923;SDS011;55961;52.156;20.942;2022-12-18T04:12:55;29.50;;;10.60;;
68923;SDS011;55961;52.156;20.942;2022-12-18T04:15:23;30.60;;;8.68;;
68923;SDS011;55961;52.156;20.942;2022-12-18T04:17:49;31.88;;;10.50;;
68923;SDS011;55961;52.156;20.942;2022-12-18T04:20:15;28.42;;;8.82;;
68923;SDS011;55961;52.156;20.942;2022-12-18T04:22:42;20.37;;;7.83;;
68923;SDS011;55961;52.156;20.942;2022-12-18T04:25:10;29.67;;;9.52;;
68923;SDS011;55961;52.156;20.942;2022-12-18T04:27:36;28.95;;;9.25;;
68923;SDS011;55961;52.156;20.942;2022-12-18T04:30:02;29.03;;;10.00;;
68923;SDS011;55961;52.156;20.942;2022-12-18T04:32:29;30.92;;;10.27;;
68923;SDS011;55961;52.156;20.942;2022-12-18T04:34:54;28.42;;;9.63;;
68923;SDS011;55961;52.156;20.942;2022-12-18T04:37:20;32.45;;;10.55;;
68923;SDS011;55961;52.156;20.942;2022-12-18T04:39:46;32.57;;;10.73;;
68923;SDS011;55961;52.156;20.942;2022-12-18T04:42:12;33.85;;;11.13;;
68923;SDS011;55961;52.156;20.942;2022-12-18T04:44:38;36.47;;;10.20;;
68923;SDS011;55961;52.156;20.942;2022-12-18T04:47:04;32.67;;;9.75;;
68923;SDS011;55961;52.156;20.942;2022-12-18T04:49:30;34.08;;;10.05;;
68923;SDS011;55961;52.156;20.942;2022-12-18T04:51:56;28.60;;;9.00;;
68923;SDS011;55961;52.156;20.942;2022-12-18T04:54:21;29.37;;;10.17;;
68923;SDS011;55961;52.156;20.942;2022-12-18T04:56:47;37.13;;;7.53;;
68923;SDS011;55961;52.156;20.942;2022-12-18T04:59:13;29.40;;;10.57;;
68923;SDS011;55961;52.156;20.942;2022-12-18T05:01:39;31.55;;;11.40;;
68923;SDS011;55961;52.156;20.942;2022-12-18T05:04:05;28.27;;;9.85;;
68923;SDS011;55961;52.156;20.942;2022-12-18T05:06:31;33.37;;;11.33;;
68923;SDS011;55961;52.156;20.942;2022-12-18T05:08:57;33.10;;;10.90;;
68923;SDS011;55961;52.156;20.942;2022-12-18T05:11:23;37.40;;;13.27;;
68923;SDS011;55961;52.156;20.942;2022-12-18T05:13:49;34.70;;;10.73;;
68923;SDS011;55961;52.156;20.942;2022-12-18T05:16:15;33.35;;;11.32;;
68923;SDS011;55961;52.156;20.942;2022-12-18T05:18:41;33.90;;;11.10;;
68923;SDS011;55961;52.156;20.942;2022-12-18T05:21:07;32.75;;;10.57;;
68923;SDS011;55961;52.156;20.942;2022-12-18T05:23:36;33.87;;;10.60;;
68923;SDS011;55961;52.156;20.942;2022-12-18T05:26:04;38.45;;;11.68;;
68923;SDS011;55961;52.156;20.942;2022-12-18T05:28:31;36.35;;;11.98;;
68923;SDS011;55961;52.156;20.942;2022-12-18T05:30:59;36.33;;;11.93;;
68923;SDS011;55961;52.156;20.942;2022-12-18T05:33:29;37.72;;;12.25;;
68923;SDS011;55961;52.156;20.942;2022-12-18T05:35:57;32.87;;;11.10;;
68923;SDS011;55961;52.156;20.942;2022-12-18T05:38:25;38.38;;;12.18;;
68923;SDS011;55961;52.156;20.942;2022-12-18T05:40:52;37.30;;;11.68;;
68923;SDS011;55961;52.156;20.942;2022-12-18T05:43:18;37.67;;;12.48;;
68923;SDS011;55961;52.156;20.942;2022-12-18T05:45:45;41.65;;;12.48;;
68923;SDS011;55961;52.156;20.942;2022-12-18T05:48:11;34.80;;;11.17;;
68923;SDS011;55961;52.156;20.942;2022-12-18T05:50:38;41.05;;;12.65;;
68923;SDS011;55961;52.156;20.942;2022-12-18T05:53:05;34.75;;;12.43;;
68923;SDS011;55961;52.156;20.942;2022-12-18T05:55:35;37.40;;;11.43;;
68923;SDS011;55961;52.156;20.942;2022-12-18T05:58:02;36.93;;;11.93;;
68923;SDS011;55961;52.156;20.942;2022-12-18T06:00:30;40.97;;;12.95;;
68923;SDS011;55961;52.156;20.942;2022-12-18T06:02:57;32.22;;;11.40;;
68923;SDS011;55961;52.156;20.942;2022-12-18T06:05:24;42.15;;;12.25;;
68923;SDS011;55961;52.156;20.942;2022-12-18T06:07:50;38.15;;;12.02;;
68923;SDS011;55961;52.156;20.942;2022-12-18T06:10:17;30.53;;;10.83;;
68923;SDS011;55961;52.156;20.942;2022-12-18T06:12:42;38.00;;;12.32;;
68923;SDS011;55961;52.156;20.942;2022-12-18T06:15:09;38.47;;;12.40;;
68923;SDS011;55961;52.156;20.942;2022-12-18T06:17:35;41.45;;;12.85;;
68923;SDS011;55961;52.156;20.942;2022-12-18T06:20:01;41.00;;;13.00;;
68923;SDS011;55961;52.156;20.942;2022-12-18T06:22:27;36.30;;;12.45;;
68923;SDS011;55961;52.156;20.942;2022-12-18T06:24:53;38.88;;;12.23;;
68923;SDS011;55961;52.156;20.942;2022-12-18T06:27:19;27.60;;;9.73;;
68923;SDS011;55961;52.156;20.942;2022-12-18T06:29:45;31.77;;;10.00;;
68923;SDS011;55961;52.156;20.942;2022-12-18T06:32:11;40.90;;;12.30;;
68923;SDS011;55961;52.156;20.942;2022-12-18T06:34:37;31.70;;;11.10;;
68923;SDS011;55961;52.156;20.942;2022-12-18T06:37:03;41.17;;;12.13;;
68923;SDS011;55961;52.156;20.942;2022-12-18T06:39:29;42.20;;;12.57;;
68923;SDS011;55961;52.156;20.942;2022-12-18T06:41:55;35.15;;;12.27;;
68923;SDS011;55961;52.156;20.942;2022-12-18T06:44:21;39.08;;;12.25;;
68923;SDS011;55961;52.156;20.942;2022-12-18T06:46:47;40.03;;;12.40;;
68923;SDS011;55961;52.156;20.942;2022-12-18T06:49:13;38.47;;;11.93;;
68923;SDS011;55961;52.156;20.942;2022-12-18T06:51:41;40.88;;;12.20;;
68923;SDS011;55961;52.156;20.942;2022-12-18T06:54:07;37.88;;;12.52;;
68923;SDS011;55961;52.156;20.942;2022-12-18T06:56:33;38.97;;;12.60;;
68923;SDS011;55961;52.156;20.942;2022-12-18T06:59:00;40.90;;;14.17;;
68923;SDS011;55961;52.156;20.942;2022-12-18T07:01:26;44.60;;;13.68;;
68923;SDS011;55961;52.156;20.942;2022-12-18T07:03:52;33.25;;;11.95;;
68923;SDS011;55961;52.156;20.942;2022-12-18T07:06:20;38.60;;;12.75;;
68923;SDS011;55961;52.156;20.942;2022-12-18T07:08:48;40.03;;;13.47;;
68923;SDS011;55961;52.156;20.942;2022-12-18T07:11:15;35.22;;;11.80;;
68923;SDS011;55961;52.156;20.942;2022-12-18T07:13:42;37.03;;;12.65;;
68923;SDS011;55961;52.156;20.942;2022-12-18T07:16:09;37.05;;;12.20;;
68923;SDS011;55961;52.156;20.942;2022-12-18T07:18:37;38.40;;;12.25;;
68923;SDS011;55961;52.156;20.942;2022-12-18T07:21:07;48.00;;;12.90;;
68923;SDS011;55961;52.156;20.942;2022-12-18T07:23:37;44.67;;;13.27;;
68923;SDS011;55961;52.156;20.942;2022-12-18T07:26:09;36.72;;;11.60;;
68923;SDS011;55961;52.156;20.942;2022-12-18T07:28:38;38.13;;;13.60;;
68923;SDS011;55961;52.156;20.942;2022-12-18T07:31:09;37.53;;;12.30;;
68923;SDS011;55961;52.156;20.942;2022-12-18T07:33:40;42.17;;;12.63;;
68923;SDS011;55961;52.156;20.942;2022-12-18T07:36:06;35.17;;;10.30;;
68923;SDS011;55961;52.156;20.942;2022-12-18T07:38:35;48.40;;;13.77;;
68923;SDS011;55961;52.156;20.942;2022-12-18T07:41:01;43.38;;;13.57;;
68923;SDS011;55961;52.156;20.942;2022-12-18T07:43:29;44.40;;;13.88;;
68923;SDS011;55961;52.156;20.942;2022-12-18T07:45:55;42.23;;;13.17;;
68923;SDS011;55961;52.156;20.942;2022-12-18T07:48:21;35.13;;;11.00;;
68923;SDS011;55961;52.156;20.942;2022-12-18T07:50:47;43.10;;;12.93;;
68923;SDS011;55961;52.156;20.942;2022-12-18T07:53:13;40.73;;;12.43;;
68923;SDS011;55961;52.156;20.942;2022-12-18T07:55:39;40.17;;;14.23;;
68923;SDS011;55961;52.156;20.942;2022-12-18T07:58:08;48.00;;;12.85;;
68923;SDS011;55961;52.156;20.942;2022-12-18T08:00:34;43.17;;;12.50;;
68923;SDS011;55961;52.156;20.942;2022-12-18T08:03:00;36.70;;;12.77;;
68923;SDS011;55961;52.156;20.942;2022-12-18T08:05:27;38.95;;;12.63;;
68923;SDS011;55961;52.156;20.942;2022-12-18T08:07:53;38.22;;;13.40;;
68923;SDS011;55961;52.156;20.942;2022-12-18T08:10:19;40.83;;;12.70;;
68923;SDS011;55961;52.156;20.942;2022-12-18T08:12:48;43.55;;;13.82;;
68923;SDS011;55961;52.156;20.942;2022-12-18T08:15:15;45.37;;;14.20;;
68923;SDS011;55961;52.156;20.942;2022-12-18T08:17:42;38.55;;;15.00;;
68923;SDS011;55961;52.156;20.942;2022-12-18T08:20:08;41.75;;;15.02;;
68923;SDS011;55961;52.156;20.942;2022-12-18T08:22:37;31.98;;;11.23;;
68923;SDS011;55961;52.156;20.942;2022-12-18T08:25:04;44.17;;;13.87;;
68923;SDS011;55961;52.156;20.942;2022-12-18T08:27:31;39.38;;;13.60;;
68923;SDS011;55961;52.156;20.942;2022-12-18T08:29:57;38.50;;;14.48;;
68923;SDS011;55961;52.156;20.942;2022-12-18T08:32:24;33.35;;;11.57;;
68923;SDS011;55961;52.156;20.942;2022-12-18T08:34:50;45.33;;;15.13;;
68923;SDS011;55961;52.156;20.942;2022-12-18T08:37:16;43.83;;;14.07;;
68923;SDS011;55961;52.156;20.942;2022-12-18T08:39:42;44.00;;;16.48;;
68923;SDS011;55961;52.156;20.942;2022-12-18T08:42:08;48.95;;;16.20;;
68923;SDS011;55961;52.156;20.942;2022-12-18T08:44:53;42.43;;;14.30;;
68923;SDS011;55961;52.156;20.942;2022-12-18T08:47:19;52.47;;;16.42;;
68923;SDS011;55961;52.156;20.942;2022-12-18T08:49:45;35.75;;;13.32;;
68923;SDS011;55961;52.156;20.942;2022-12-18T08:52:13;41.72;;;16.08;;
68923;SDS011;55961;52.156;20.942;2022-12-18T08:54:39;50.13;;;16.27;;
68923;SDS011;55961;52.156;20.942;2022-12-18T08:57:05;48.03;;;16.02;;
68923;SDS011;55961;52.156;20.942;2022-12-18T08:59:31;47.88;;;18.27;;
68923;SDS011;55961;52.156;20.942;2022-12-18T09:01:57;41.47;;;14.10;;
68923;SDS011;55961;52.156;20.942;2022-12-18T09:04:23;48.17;;;16.77;;
68923;SDS011;55961;52.156;20.942;2022-12-18T09:06:49;45.20;;;15.35;;
68923;SDS011;55961;52.156;20.942;2022-12-18T09:09:15;46.10;;;15.75;;
68923;SDS011;55961;52.156;20.942;2022-12-18T09:11:44;46.50;;;14.90;;
68923;SDS011;55961;52.156;20.942;2022-12-18T09:14:10;41.67;;;14.13;;
68923;SDS011;55961;52.156;20.942;2022-12-18T09:16:36;45.38;;;15.65;;
68923;SDS011;55961;52.156;20.942;2022-12-18T09:19:03;36.08;;;13.15;;
68923;SDS011;55961;52.156;20.942;2022-12-18T09:21:34;42.13;;;16.13;;
68923;SDS011;55961;52.156;20.942;2022-12-18T09:24:04;41.13;;;14.60;;
68923;SDS011;55961;52.156;20.942;2022-12-18T09:26:30;38.00;;;12.38;;
68923;SDS011;55961;52.156;20.942;2022-12-18T09:28:56;41.10;;;13.55;;
68923;SDS011;55961;52.156;20.942;2022-12-18T09:31:23;31.52;;;11.27;;
68923;SDS011;55961;52.156;20.942;2022-12-18T09:33:49;56.17;;;18.77;;
68923;SDS011;55961;52.156;20.942;2022-12-18T09:36:16;41.45;;;16.52;;
68923;SDS011;55961;52.156;20.942;2022-12-18T09:38:43;37.28;;;14.45;;
68923;SDS011;55961;52.156;20.942;2022-12-18T09:43:51;52.63;;;17.95;;
68923;SDS011;55961;52.156;20.942;2022-12-18T09:46:29;28.53;;;11.40;;
68923;SDS011;55961;52.156;20.942;2022-12-18T09:48:59;43.67;;;15.75;;
68923;SDS011;55961;52.156;20.942;2022-12-18T09:51:33;48.33;;;15.85;;
68923;SDS011;55961;52.156;20.942;2022-12-18T09:54:04;54.50;;;18.67;;
68923;SDS011;55961;52.156;20.942;2022-12-18T09:56:51;57.25;;;18.52;;
68923;SDS011;55961;52.156;20.942;2022-12-18T09:59:24;53.30;;;17.83;;
68923;SDS011;55961;52.156;20.942;2022-12-18T10:01:55;36.60;;;12.32;;
68923;SDS011;55961;52.156;20.942;2022-12-18T10:04:21;55.13;;;19.02;;
68923;SDS011;55961;52.156;20.942;2022-12-18T10:20:25;32.08;;;11.07;;
68923;SDS011;55961;52.156;20.942;2022-12-18T10:25:51;39.92;;;11.50;;
68923;SDS011;55961;52.156;20.942;2022-12-18T10:28:21;31.58;;;10.98;;
68923;SDS011;55961;52.156;20.942;2022-12-18T10:30:48;39.63;;;13.95;;
68923;SDS011;55961;52.156;20.942;2022-12-18T10:33:23;37.88;;;13.30;;
68923;SDS011;55961;52.156;20.942;2022-12-18T10:35:53;45.07;;;14.97;;
68923;SDS011;55961;52.156;20.942;2022-12-18T10:43:21;35.55;;;9.77;;
68923;SDS011;55961;52.156;20.942;2022-12-18T10:48:36;51.73;;;15.93;;
68923;SDS011;55961;52.156;20.942;2022-12-18T10:51:05;50.38;;;17.00;;
68923;SDS011;55961;52.156;20.942;2022-12-18T10:53:34;56.50;;;19.65;;
68923;SDS011;55961;52.156;20.942;2022-12-18T10:56:02;54.63;;;18.45;;
68923;SDS011;55961;52.156;20.942;2022-12-18T10:58:31;57.47;;;19.20;;
68923;SDS011;55961;52.156;20.942;2022-12-18T11:03:35;56.67;;;18.63;;
68923;SDS011;55961;52.156;20.942;2022-12-18T11:06:08;58.35;;;21.33;;
68923;SDS011;55961;52.156;20.942;2022-12-18T11:08:38;52.45;;;17.05;;
68923;SDS011;55961;52.156;20.942;2022-12-18T11:11:21;35.25;;;11.25;;
68923;SDS011;55961;52.156;20.942;2022-12-18T11:16:44;45.40;;;14.70;;
68923;SDS011;55961;52.156;20.942;2022-12-18T11:21:51;55.22;;;16.48;;
68923;SDS011;55961;52.156;20.942;2022-12-18T11:24:22;49.15;;;16.15;;
68923;SDS011;55961;52.156;20.942;2022-12-18T11:26:57;51.07;;;17.40;;
68923;SDS011;55961;52.156;20.942;2022-12-18T11:29:36;44.28;;;10.50;;
68923;SDS011;55961;52.156;20.942;2022-12-18T11:32:12;44.45;;;15.98;;
68923;SDS011;55961;52.156;20.942;2022-12-18T11:35:35;46.00;;;15.40;;
68923;SDS011;55961;52.156;20.942;2022-12-18T11:37:57;44.90;;;15.35;;
68923;SDS011;55961;52.156;20.942;2022-12-18T11:40:32;43.77;;;15.40;;
68923;SDS011;55961;52.156;20.942;2022-12-18T11:46:14;46.13;;;14.45;;
68923;SDS011;55961;52.156;20.942;2022-12-18T11:48:52;49.78;;;14.18;;
68923;SDS011;55961;52.156;20.942;2022-12-18T11:51:28;52.22;;;17.83;;
68923;SDS011;55961;52.156;20.942;2022-12-18T11:54:00;46.57;;;15.17;;
68923;SDS011;55961;52.156;20.942;2022-12-18T11:56:36;47.30;;;16.33;;
68923;SDS011;55961;52.156;20.942;2022-12-18T12:18:01;47.40;;;15.45;;
68923;SDS011;55961;52.156;20.942;2022-12-18T12:23:18;51.53;;;15.65;;
68923;SDS011;55961;52.156;20.942;2022-12-18T12:31:49;46.92;;;15.15;;
68923;SDS011;55961;52.156;20.942;2022-12-18T12:34:24;45.57;;;14.27;;
68923;SDS011;55961;52.156;20.942;2022-12-18T12:39:55;50.42;;;16.55;;
68923;SDS011;55961;52.156;20.942;2022-12-18T12:45:26;51.00;;;16.40;;
68923;SDS011;55961;52.156;20.942;2022-12-18T12:48:00;48.20;;;16.90;;
68923;SDS011;55961;52.156;20.942;2022-12-18T12:50:28;44.15;;;14.48;;
68923;SDS011;55961;52.156;20.942;2022-12-18T12:52:59;46.95;;;15.00;;
68923;SDS011;55961;52.156;20.942;2022-12-18T12:55:31;50.05;;;16.48;;
68923;SDS011;55961;52.156;20.942;2022-12-18T13:00:47;46.28;;;15.30;;
68923;SDS011;55961;52.156;20.942;2022-12-18T13:03:19;51.03;;;17.55;;
68923;SDS011;55961;52.156;20.942;2022-12-18T13:08:25;43.57;;;16.20;;
68923;SDS011;55961;52.156;20.942;2022-12-18T13:10:53;44.50;;;16.45;;
68923;SDS011;55961;52.156;20.942;2022-12-18T13:13:51;35.10;;;11.35;;
68923;SDS011;55961;52.156;20.942;2022-12-18T13:16:25;46.67;;;15.35;;
68923;SDS011;55961;52.156;20.942;2022-12-18T13:18:53;45.03;;;15.75;;
68923;SDS011;55961;52.156;20.942;2022-12-18T13:21:29;50.40;;;17.50;;
68923;SDS011;55961;52.156;20.942;2022-12-18T13:26:51;44.63;;;15.18;;
68923;SDS011;55961;52.156;20.942;2022-12-18T13:29:39;49.28;;;14.70;;
68923;SDS011;55961;52.156;20.942;2022-12-18T13:32:24;45.47;;;16.10;;
68923;SDS011;55961;52.156;20.942;2022-12-18T13:35:33;40.75;;;14.38;;
68923;SDS011;55961;52.156;20.942;2022-12-18T13:37:43;34.78;;;11.98;;
68923;SDS011;55961;52.156;20.942;2022-12-18T13:46:04;51.77;;;17.40;;
68923;SDS011;55961;52.156;20.942;2022-12-18T13:48:47;46.97;;;17.30;;
68923;SDS011;55961;52.156;20.942;2022-12-18T13:51:20;47.05;;;16.95;;
68923;SDS011;55961;52.156;20.942;2022-12-18T13:56:43;47.78;;;16.23;;
68923;SDS011;55961;52.156;20.942;2022-12-18T14:01:52;53.55;;;17.85;;
68923;SDS011;55961;52.156;20.942;2022-12-18T14:04:27;41.88;;;15.18;;
68923;SDS011;55961;52.156;20.942;2022-12-18T14:06:56;47.08;;;16.00;;
68923;SDS011;55961;52.156;20.942;2022-12-18T14:09:28;53.13;;;18.75;;
68923;SDS011;55961;52.156;20.942;2022-12-18T14:11:56;40.30;;;14.00;;
68923;SDS011;55961;52.156;20.942;2022-12-18T14:14:42;44.28;;;17.13;;
68923;SDS011;55961;52.156;20.942;2022-12-18T14:17:11;48.80;;;16.27;;
68923;SDS011;55961;52.156;20.942;2022-12-18T14:19:40;56.63;;;19.95;;
68923;SDS011;55961;52.156;20.942;2022-12-18T14:22:12;67.97;;;21.23;;
68923;SDS011;55961;52.156;20.942;2022-12-18T14:24:42;79.60;;;24.10;;
68923;SDS011;55961;52.156;20.942;2022-12-18T14:27:13;57.25;;;19.52;;
68923;SDS011;55961;52.156;20.942;2022-12-18T14:29:46;53.70;;;18.65;;
68923;SDS011;55961;52.156;20.942;2022-12-18T14:32:16;59.63;;;19.48;;
68923;SDS011;55961;52.156;20.942;2022-12-18T14:34:45;51.03;;;17.75;;
68923;SDS011;55961;52.156;20.942;2022-12-18T14:37:20;58.23;;;21.93;;
68923;SDS011;55961;52.156;20.942;2022-12-18T14:40:11;40.97;;;15.25;;
68923;SDS011;55961;52.156;20.942;2022-12-18T14:42:37;47.63;;;16.85;;
68923;SDS011;55961;52.156;20.942;2022-12-18T14:51:06;42.63;;;15.43;;
68923;SDS011;55961;52.156;20.942;2022-12-18T14:54:03;46.90;;;16.67;;
68923;SDS011;55961;52.156;20.942;2022-12-18T14:56:30;55.55;;;18.55;;
68923;SDS011;55961;52.156;20.942;2022-12-18T14:59:02;58.67;;;18.58;;
68923;SDS011;55961;52.156;20.942;2022-12-18T15:01:34;45.50;;;15.77;;
68923;SDS011;55961;52.156;20.942;2022-12-18T15:04:00;53.13;;;16.67;;
68923;SDS011;55961;52.156;20.942;2022-12-18T15:06:37;49.33;;;16.40;;
68923;SDS011;55961;52.156;20.942;2022-12-18T15:09:21;52.25;;;17.92;;
68923;SDS011;55961;52.156;20.942;2022-12-18T15:11:49;51.47;;;17.52;;
68923;SDS011;55961;52.156;20.942;2022-12-18T15:14:23;54.80;;;21.42;;
68923;SDS011;55961;52.156;20.942;2022-12-18T15:16:57;56.20;;;20.57;;
68923;SDS011;55961;52.156;20.942;2022-12-18T15:19:28;52.88;;;19.60;;
68923;SDS011;55961;52.156;20.942;2022-12-18T15:22:00;51.35;;;20.13;;
68923;SDS011;55961;52.156;20.942;2022-12-18T15:24:27;49.50;;;19.63;;
68923;SDS011;55961;52.156;20.942;2022-12-18T15:26:57;46.97;;;16.23;;
68923;SDS011;55961;52.156;20.942;2022-12-18T15:29:23;39.60;;;14.57;;
68923;SDS011;55961;52.156;20.942;2022-12-18T15:32:24;31.23;;;12.60;;
68923;SDS011;55961;52.156;20.942;2022-12-18T15:34:44;66.38;;;23.23;;
68923;SDS011;55961;52.156;20.942;2022-12-18T15:37:10;53.10;;;18.03;;
68923;SDS011;55961;52.156;20.942;2022-12-18T15:39:36;27.98;;;9.57;;
68923;SDS011;55961;52.156;20.942;2022-12-18T15:42:02;56.63;;;19.33;;
68923;SDS011;55961;52.156;20.942;2022-12-18T15:44:51;47.63;;;18.55;;
68923;SDS011;55961;52.156;20.942;2022-12-18T15:47:17;51.27;;;19.43;;
68923;SDS011;55961;52.156;20.942;2022-12-18T15:49:43;49.47;;;17.38;;
68923;SDS011;55961;52.156;20.942;2022-12-18T15:52:09;45.30;;;16.00;;
68923;SDS011;55961;52.156;20.942;2022-12-18T15:54:38;39.03;;;12.70;;
68923;SDS011;55961;52.156;20.942;2022-12-18T15:57:23;42.33;;;13.30;;
68923;SDS011;55961;52.156;20.942;2022-12-18T15:59:49;50.33;;;17.80;;
68923;SDS011;55961;52.156;20.942;2022-12-18T16:02:20;49.33;;;17.25;;
68923;SDS011;55961;52.156;20.942;2022-12-18T16:04:47;33.00;;;11.73;;
68923;SDS011;55961;52.156;20.942;2022-12-18T16:07:15;43.92;;;14.93;;
68923;SDS011;55961;52.156;20.942;2022-12-18T16:09:40;49.70;;;17.70;;
68923;SDS011;55961;52.156;20.942;2022-12-18T16:12:20;53.47;;;20.30;;
68923;SDS011;55961;52.156;20.942;2022-12-18T16:17:35;52.22;;;16.33;;
68923;SDS011;55961;52.156;20.942;2022-12-18T16:20:00;43.83;;;15.45;;
68923;SDS011;55961;52.156;20.942;2022-12-18T16:22:28;27.53;;;11.67;;
68923;SDS011;55961;52.156;20.942;2022-12-18T16:24:55;48.13;;;17.58;;
68923;SDS011;55961;52.156;20.942;2022-12-18T16:27:22;40.17;;;14.73;;
68923;SDS011;55961;52.156;20.942;2022-12-18T16:29:48;44.90;;;15.18;;
68923;SDS011;55961;52.156;20.942;2022-12-18T16:32:16;35.53;;;13.32;;
68923;SDS011;55961;52.156;20.942;2022-12-18T16:34:43;46.10;;;15.23;;
68923;SDS011;55961;52.156;20.942;2022-12-18T16:37:11;39.17;;;13.25;;